createdAt,value
2019-03-28T00:00:47.033Z,101153.23
2019-03-28T00:03:20.843Z,101148.45
2019-03-28T00:05:53.772Z,101156.25
2019-03-28T00:08:26.453Z,101153.21
2019-03-28T00:10:59.023Z,101144.95
2019-03-28T00:13:31.763Z,101138.89
2019-03-28T00:16:04.644Z,101138.43
2019-03-28T00:18:37.184Z,101138.44
2019-03-28T00:21:10.113Z,101138.48
2019-03-28T00:24:01.569Z,101140.70
2019-03-28T00:26:34.424Z,101139.41
2019-03-28T00:29:07.212Z,101137.69
2019-03-28T00:31:39.903Z,101141.16
2019-03-28T00:34:13.976Z,101143.72
2019-03-28T00:36:46.656Z,101149.81
2019-03-28T00:39:19.343Z,101143.72
2019-03-28T00:41:51.843Z,101141.98
2019-03-28T00:44:24.482Z,101140.68
2019-03-28T00:46:57.167Z,101141.92
2019-03-28T00:49:29.862Z,101140.61
2019-03-28T00:52:03.503Z,101143.20
2019-03-28T00:54:35.962Z,101150.54
2019-03-28T00:57:08.700Z,101151.38
2019-03-28T00:59:41.197Z,101140.94
2019-03-28T01:02:14.345Z,101142.23
2019-03-28T01:04:47.220Z,101147.86
2019-03-28T01:07:19.982Z,101140.45
2019-03-28T01:09:52.961Z,101143.45
2019-03-28T01:12:25.848Z,101141.25
2019-03-28T01:14:58.663Z,101137.34
2019-03-28T01:17:31.573Z,101143.85
2019-03-28T01:20:04.402Z,101139.95
2019-03-28T01:22:37.302Z,101145.16
2019-03-28T01:25:10.213Z,101145.61
2019-03-28T01:27:43.153Z,101136.94
2019-03-28T01:30:16.037Z,101132.60
2019-03-28T01:32:49.034Z,101139.52
2019-03-28T01:35:21.909Z,101136.91
2019-03-28T01:37:54.718Z,101136.44
2019-03-28T01:40:27.183Z,101134.70
2019-03-28T01:42:59.784Z,101134.66
2019-03-28T01:45:32.780Z,101132.92
2019-03-28T01:48:06.034Z,101136.42
2019-03-28T01:50:38.798Z,101137.67
2019-03-28T01:53:11.295Z,101134.22
2019-03-28T01:55:43.827Z,101138.97
2019-03-28T01:58:16.435Z,101133.33
2019-03-28T02:00:48.966Z,101141.14
2019-03-28T02:03:22.613Z,101135.91
2019-03-28T02:05:55.132Z,101136.32
2019-03-28T02:08:27.546Z,101141.06
2019-03-28T02:11:00.036Z,101133.66
2019-03-28T02:13:32.614Z,101135.84
2019-03-28T02:16:05.402Z,101134.95
2019-03-28T02:18:37.913Z,101134.95
2019-03-28T02:21:10.673Z,101136.73
2019-03-28T02:23:43.226Z,101135.03
2019-03-28T02:26:15.950Z,101139.81
2019-03-28T02:28:48.673Z,101134.61
2019-03-28T02:31:21.184Z,101136.35
2019-03-28T02:33:53.673Z,101140.27
2019-03-28T02:36:26.229Z,101142.05
2019-03-28T02:38:58.933Z,101137.31
2019-03-28T02:41:31.514Z,101139.91
2019-03-28T02:44:04.073Z,101136.44
2019-03-28T02:46:36.665Z,101136.44
2019-03-28T02:49:09.181Z,101135.59
2019-03-28T02:51:41.942Z,101144.26
2019-03-28T02:54:14.586Z,101140.77
2019-03-28T02:56:47.162Z,101148.58
2019-03-28T02:59:19.695Z,101143.38
2019-03-28T03:01:53.354Z,101143.41
2019-03-28T03:04:25.785Z,101144.27
2019-03-28T03:06:58.433Z,101144.73
2019-03-28T03:09:31.278Z,101150.78
2019-03-28T03:12:03.967Z,101143.42
2019-03-28T03:14:37.525Z,101145.56
2019-03-28T03:17:10.318Z,101139.91
2019-03-28T03:19:42.913Z,101130.41
2019-03-28T03:22:15.454Z,101146.38
2019-03-28T03:24:48.873Z,101141.16
2019-03-28T03:27:21.503Z,101147.25
2019-03-28T03:29:54.423Z,101144.23
2019-03-28T03:32:27.715Z,101148.98
2019-03-28T03:35:01.574Z,101146.78
2019-03-28T03:37:34.837Z,101147.66
2019-03-28T03:40:08.838Z,101152.39
2019-03-28T03:42:41.413Z,101152.39
2019-03-28T03:45:14.364Z,101157.18
2019-03-28T03:47:47.036Z,101152.84
2019-03-28T03:50:28.721Z,101151.97
2019-03-28T03:53:01.453Z,101152.80
2019-03-28T03:55:34.199Z,101150.19
2019-03-28T03:58:15.335Z,101149.34
2019-03-28T04:00:41.315Z,101147.58
2019-03-28T04:03:14.284Z,101148.45
2019-03-28T04:05:47.138Z,101144.55
2019-03-28T04:08:20.955Z,101149.30
2019-03-28T04:10:53.828Z,101149.74
2019-03-28T04:13:26.760Z,101146.69
2019-03-28T04:15:59.554Z,101150.59
2019-03-28T04:18:32.793Z,101151.94
2019-03-28T04:21:05.722Z,101158.41
2019-03-28T04:23:38.975Z,101150.59
2019-03-28T04:26:11.887Z,101151.90
2019-03-28T04:28:45.114Z,101151.89
2019-03-28T04:31:18.364Z,101154.06
2019-03-28T04:33:51.424Z,101151.89
2019-03-28T04:36:24.433Z,101162.30
2019-03-28T04:38:57.387Z,101157.95
2019-03-28T04:41:30.205Z,101163.58
2019-03-28T04:44:03.135Z,101166.13
2019-03-28T04:46:35.844Z,101161.37
2019-03-28T04:49:08.823Z,101168.73
2019-03-28T04:51:41.884Z,101166.58
2019-03-28T04:54:14.633Z,101172.64
2019-03-28T04:56:47.403Z,101176.53
2019-03-28T04:59:20.026Z,101175.20
2019-03-28T05:02:02.465Z,101183.45
2019-03-28T05:04:27.426Z,101182.53
2019-03-28T05:07:00.232Z,101185.55
2019-03-28T05:09:33.014Z,101188.55
2019-03-28T05:12:05.897Z,101188.12
2019-03-28T05:14:38.881Z,101190.25
2019-03-28T05:17:11.773Z,101187.59
2019-03-28T05:19:44.723Z,101188.45
2019-03-28T05:22:17.793Z,101199.28
2019-03-28T05:24:51.063Z,101197.97
2019-03-28T05:27:23.784Z,101201.41
2019-03-28T05:29:56.543Z,101204.41
2019-03-28T05:32:29.462Z,101205.28
2019-03-28T05:35:02.127Z,101204.80
2019-03-28T05:37:34.865Z,101200.47
2019-03-28T05:40:09.034Z,101200.47
2019-03-28T05:42:41.897Z,101207.41
2019-03-28T05:45:14.814Z,101204.81
2019-03-28T05:47:47.463Z,101210.48
2019-03-28T05:50:20.307Z,101206.92
2019-03-28T05:52:52.954Z,101219.11
2019-03-28T05:55:25.632Z,101213.41
2019-03-28T05:57:58.253Z,101220.75
2019-03-28T06:00:31.303Z,101220.72
2019-03-28T06:03:03.953Z,101225.05
2019-03-28T06:05:36.534Z,101229.38
2019-03-28T06:08:09.083Z,101230.23
2019-03-28T06:10:41.603Z,101224.55
2019-03-28T06:13:14.603Z,101225.41
2019-03-28T06:15:47.123Z,101228.43
2019-03-28T06:18:20.345Z,101230.56
2019-03-28T06:20:53.073Z,101227.55
2019-03-28T06:23:25.633Z,101233.59
2019-03-28T06:25:58.149Z,101242.72
2019-03-28T06:28:30.662Z,101239.69
2019-03-28T06:31:03.333Z,101237.50
2019-03-28T06:33:38.485Z,101233.59
2019-03-28T06:36:10.754Z,101237.91
2019-03-28T06:38:43.353Z,101240.47
2019-03-28T06:41:16.334Z,101243.41
2019-03-28T06:43:48.983Z,101247.70
2019-03-28T06:46:21.803Z,101243.77
2019-03-28T06:48:55.328Z,101246.36
2019-03-28T06:51:31.173Z,101251.96
2019-03-28T06:54:04.427Z,101243.21
2019-03-28T06:56:37.272Z,101257.06
2019-03-28T06:59:09.969Z,101257.84
2019-03-28T07:01:42.493Z,101263.36
2019-03-28T07:04:14.993Z,101264.59
2019-03-28T07:06:47.736Z,101265.83
2019-03-28T07:09:20.574Z,101266.98
2019-03-28T07:11:53.267Z,101270.30
2019-03-28T07:14:25.966Z,101272.41
2019-03-28T07:16:58.515Z,101277.58
2019-03-28T07:19:31.245Z,101281.47
2019-03-28T07:22:03.763Z,101282.72
2019-03-28T07:24:36.893Z,101280.48
2019-03-28T07:27:09.513Z,101276.92
2019-03-28T07:29:50.645Z,101285.97
2019-03-28T07:32:17.273Z,101285.47
2019-03-28T07:37:36.332Z,101286.08
2019-03-28T07:40:09.314Z,101286.80
2019-03-28T07:42:41.933Z,101292.80
2019-03-28T07:45:16.082Z,101293.09
2019-03-28T07:47:48.846Z,101298.63
2019-03-28T07:50:21.574Z,101299.04
2019-03-28T07:52:54.164Z,101300.59
2019-03-28T07:55:26.662Z,101302.99
2019-03-28T07:57:59.620Z,101297.86
2019-03-28T08:00:32.422Z,101303.30
2019-03-28T08:03:05.442Z,101300.75
2019-03-28T08:05:38.152Z,101298.91
2019-03-28T08:08:10.674Z,101293.86
2019-03-28T08:10:43.214Z,101293.60
2019-03-28T08:13:15.824Z,101298.92
2019-03-28T08:15:48.538Z,101308.45
2019-03-28T08:18:23.759Z,101304.58
2019-03-28T08:20:55.602Z,101315.90
2019-03-28T08:23:28.206Z,101317.81
2019-03-28T08:26:01.826Z,101318.88
2019-03-28T08:28:34.534Z,101315.73
2019-03-28T08:31:06.982Z,101321.86
2019-03-28T08:33:41.703Z,101325.52
2019-03-28T08:36:16.082Z,101327.47
2019-03-28T08:38:52.523Z,101327.62
2019-03-28T08:41:26.092Z,101321.27
2019-03-28T08:43:58.665Z,101318.88
2019-03-28T08:46:31.353Z,101322.38
2019-03-28T08:49:03.964Z,101327.45
2019-03-28T08:51:36.553Z,101329.98
2019-03-28T08:54:09.092Z,101332.70
2019-03-28T08:56:42.702Z,101340.58
2019-03-28T08:59:15.263Z,101350.31
2019-03-28T09:01:48.774Z,101349.29
2019-03-28T09:04:21.972Z,101347.44
2019-03-28T09:06:55.106Z,101342.46
2019-03-28T09:09:27.994Z,101337.05
2019-03-28T09:12:01.765Z,101333.52
2019-03-28T09:14:34.743Z,101336.77
2019-03-28T09:17:07.493Z,101341.16
2019-03-28T09:19:40.206Z,101350.13
2019-03-28T09:22:12.864Z,101351.42
2019-03-28T09:24:45.962Z,101348.32
2019-03-28T09:27:18.964Z,101346.82
2019-03-28T09:29:51.673Z,101358.35
2019-03-28T09:32:24.873Z,101355.32
2019-03-28T09:34:58.386Z,101357.25
2019-03-28T09:37:31.453Z,101352.55
2019-03-28T09:40:04.337Z,101355.80
2019-03-28T09:42:36.893Z,101353.38
2019-03-28T09:45:09.657Z,101353.38
2019-03-28T09:47:42.913Z,101359.66
2019-03-28T09:50:15.643Z,101363.64
2019-03-28T09:52:48.354Z,101368.11
2019-03-28T09:55:20.907Z,101365.55
2019-03-28T09:57:54.202Z,101362.40
2019-03-28T10:00:27.101Z,101355.99
2019-03-28T10:02:59.773Z,101361.21
2019-03-28T10:05:33.202Z,101350.53
2019-03-28T10:08:06.061Z,101356.77
2019-03-28T10:10:38.722Z,101350.29
2019-03-28T10:13:11.442Z,101347.69
2019-03-28T10:15:44.242Z,101365.67
2019-03-28T10:18:16.826Z,101369.48
2019-03-28T10:20:49.497Z,101362.98
2019-03-28T10:23:22.153Z,101359.39
2019-03-28T10:25:54.812Z,101364.43
2019-03-28T10:28:27.433Z,101359.73
2019-03-28T10:31:00.353Z,101362.61
2019-03-28T10:33:33.332Z,101352.77
2019-03-28T10:36:06.313Z,101358.09
2019-03-28T10:38:38.918Z,101357.03
2019-03-28T10:41:11.622Z,101353.72
2019-03-28T10:43:44.154Z,101359.93
2019-03-28T10:46:18.024Z,101364.29
2019-03-28T10:48:54.348Z,101380.67
2019-03-28T10:51:25.705Z,101374.80
2019-03-28T10:53:58.253Z,101391.50
2019-03-28T10:56:30.814Z,101393.20
2019-03-28T10:59:04.603Z,101393.00
2019-03-28T11:01:49.775Z,101392.27
2019-03-28T11:04:11.608Z,101392.44
2019-03-28T11:06:44.592Z,101382.38
2019-03-28T11:09:17.194Z,101392.87
2019-03-28T11:11:49.753Z,101394.61
2019-03-28T11:14:22.293Z,101392.63
2019-03-28T11:16:55.962Z,101390.97
2019-03-28T11:19:28.714Z,101397.50
2019-03-28T11:22:01.344Z,101395.48
2019-03-28T11:24:34.211Z,101393.14
2019-03-28T11:27:07.022Z,101397.52
2019-03-28T11:29:39.821Z,101401.50
2019-03-28T11:32:12.752Z,101391.18
2019-03-28T11:34:45.640Z,101387.59
2019-03-28T11:37:25.907Z,101390.52
2019-03-28T11:39:53.273Z,101389.44
2019-03-28T11:42:26.263Z,101380.39
2019-03-28T11:44:59.173Z,101384.84
2019-03-28T11:47:31.773Z,101387.35
2019-03-28T11:50:04.977Z,101388.12
2019-03-28T11:52:37.603Z,101394.80
2019-03-28T11:55:12.546Z,101389.66
2019-03-28T11:57:45.003Z,101383.09
2019-03-28T12:00:18.955Z,101387.38
2019-03-28T12:02:51.693Z,101386.22
2019-03-28T12:05:24.330Z,101385.52
2019-03-28T12:07:56.845Z,101387.25
2019-03-28T12:10:29.504Z,101394.05
2019-03-28T12:13:03.023Z,101393.88
2019-03-28T12:15:35.673Z,101392.27
2019-03-28T12:18:08.392Z,101388.63
2019-03-28T12:20:41.067Z,101387.22
2019-03-28T12:23:13.713Z,101388.85
2019-03-28T12:25:47.426Z,101386.37
2019-03-28T12:28:20.164Z,101380.39
2019-03-28T12:30:53.023Z,101382.13
2019-03-28T12:33:25.690Z,101376.16
2019-03-28T12:35:58.553Z,101374.28
2019-03-28T12:38:31.813Z,101372.72
2019-03-28T12:41:04.827Z,101378.48
2019-03-28T12:43:37.362Z,101380.31
2019-03-28T12:46:10.196Z,101374.69
2019-03-28T12:48:42.682Z,101378.84
2019-03-28T12:51:15.172Z,101373.08
2019-03-28T12:53:47.713Z,101365.56
2019-03-28T12:56:20.403Z,101379.23
2019-03-28T12:58:52.993Z,101376.50
2019-03-28T13:01:26.493Z,101385.36
2019-03-28T13:03:59.152Z,101382.70
2019-03-28T13:06:32.163Z,101382.26
2019-03-28T13:09:07.249Z,101381.70
2019-03-28T13:11:40.401Z,101378.55
2019-03-28T13:14:13.334Z,101388.52
2019-03-28T13:16:47.346Z,101383.88
2019-03-28T13:19:20.286Z,101388.69
2019-03-28T13:21:52.963Z,101392.13
2019-03-28T13:24:25.715Z,101394.77
2019-03-28T13:26:58.703Z,101397.85
2019-03-28T13:29:32.205Z,101395.76
2019-03-28T13:32:06.573Z,101395.77
2019-03-28T13:34:39.263Z,101386.03
2019-03-28T13:37:11.903Z,101388.81
2019-03-28T13:39:44.497Z,101394.92
2019-03-28T13:42:16.973Z,101395.42
2019-03-28T13:44:49.664Z,101390.13
2019-03-28T13:47:22.263Z,101389.48
2019-03-28T13:49:54.778Z,101389.11
2019-03-28T13:52:27.642Z,101401.12
2019-03-28T13:55:00.543Z,101398.53
2019-03-28T13:57:34.563Z,101393.92
2019-03-28T14:00:08.061Z,101396.09
2019-03-28T14:02:54.636Z,101396.68
2019-03-28T14:05:15.214Z,101401.91
2019-03-28T14:07:47.974Z,101395.28
2019-03-28T14:10:23.433Z,101399.77
2019-03-28T14:12:56.136Z,101397.75
2019-03-28T14:15:30.043Z,101397.62
2019-03-28T14:18:02.683Z,101399.17
2019-03-28T14:20:35.302Z,101403.20
2019-03-28T14:23:08.157Z,101409.20
2019-03-28T14:25:40.692Z,101410.50
2019-03-28T14:28:13.373Z,101410.53
2019-03-28T14:30:45.922Z,101405.47
2019-03-28T14:33:18.563Z,101411.18
2019-03-28T14:35:51.063Z,101417.30
2019-03-28T14:38:23.684Z,101419.60
2019-03-28T14:40:58.404Z,101412.87
2019-03-28T14:43:30.622Z,101409.13
2019-03-28T14:46:03.173Z,101414.86
2019-03-28T14:48:35.843Z,101413.30
2019-03-28T14:51:08.629Z,101414.86
2019-03-28T14:53:41.103Z,101419.00
2019-03-28T14:56:14.254Z,101409.63
2019-03-28T14:58:50.695Z,101422.97
2019-03-28T15:01:23.156Z,101410.24
2019-03-28T15:03:55.753Z,101414.10
2019-03-28T15:06:28.400Z,101411.50
2019-03-28T15:09:00.872Z,101416.52
2019-03-28T15:11:35.192Z,101421.81
2019-03-28T15:14:07.915Z,101423.11
2019-03-28T15:16:40.662Z,101418.55
2019-03-28T15:19:14.266Z,101420.52
2019-03-28T15:21:46.905Z,101420.35
2019-03-28T15:24:19.682Z,101417.43
2019-03-28T15:26:52.284Z,101423.13
2019-03-28T15:29:24.802Z,101419.59
2019-03-28T15:31:57.393Z,101424.61
2019-03-28T15:34:29.952Z,101435.91
2019-03-28T15:37:03.873Z,101433.45
2019-03-28T15:39:36.513Z,101429.85
2019-03-28T15:42:11.562Z,101433.83
2019-03-28T15:44:44.136Z,101439.09
2019-03-28T15:47:17.617Z,101434.73
2019-03-28T15:49:50.340Z,101435.75
2019-03-28T15:52:23.052Z,101435.97
2019-03-28T15:54:55.760Z,101437.39
2019-03-28T15:57:29.343Z,101441.17
2019-03-28T16:00:01.843Z,101438.03
2019-03-28T16:02:35.929Z,101437.73
2019-03-28T16:05:08.732Z,101445.20
2019-03-28T16:07:41.812Z,101445.12
2019-03-28T16:10:15.191Z,101452.11
2019-03-28T16:12:47.903Z,101455.88
2019-03-28T16:15:20.793Z,101455.30
2019-03-28T16:17:53.526Z,101460.98
2019-03-28T16:20:26.112Z,101468.49
2019-03-28T16:22:58.834Z,101464.63
2019-03-28T16:25:31.444Z,101463.34
2019-03-28T16:28:03.973Z,101464.97
2019-03-28T16:30:38.072Z,101464.58
2019-03-28T16:33:10.823Z,101467.50
2019-03-28T16:35:43.571Z,101469.55
2019-03-28T16:38:16.702Z,101471.19
2019-03-28T16:40:49.392Z,101478.00
2019-03-28T16:43:21.932Z,101477.44
2019-03-28T16:45:55.563Z,101491.38
2019-03-28T16:48:28.173Z,101488.17
2019-03-28T16:51:00.662Z,101490.72
2019-03-28T16:53:33.193Z,101489.41
2019-03-28T16:56:05.662Z,101497.64
2019-03-28T16:58:38.292Z,101501.09
2019-03-28T17:01:10.896Z,101504.90
2019-03-28T17:03:43.738Z,101507.80
2019-03-28T17:06:16.933Z,101512.00
2019-03-28T17:08:50.772Z,101514.47
2019-03-28T17:11:23.784Z,101524.36
2019-03-28T17:13:56.703Z,101518.88
2019-03-28T17:16:29.493Z,101519.09
2019-03-28T17:19:02.722Z,101524.10
2019-03-28T17:21:35.273Z,101525.14
2019-03-28T17:24:07.882Z,101534.01
2019-03-28T17:26:40.476Z,101528.44
2019-03-28T17:29:13.093Z,101530.70
2019-03-28T17:31:45.682Z,101529.13
2019-03-28T17:34:18.340Z,101531.09
2019-03-28T17:36:51.115Z,101536.55
2019-03-28T17:39:23.814Z,101536.75
2019-03-28T17:41:57.645Z,101536.88
2019-03-28T17:44:30.515Z,101536.55
2019-03-28T17:47:03.422Z,101541.03
2019-03-28T17:49:36.293Z,101546.77
2019-03-28T17:52:08.965Z,101551.67
2019-03-28T17:54:41.564Z,101547.36
2019-03-28T17:57:14.074Z,101548.37
2019-03-28T17:59:46.944Z,101555.02
2019-03-28T18:02:19.532Z,101559.08
2019-03-28T18:04:52.333Z,101561.78
2019-03-28T18:07:24.924Z,101564.48
2019-03-28T18:09:57.612Z,101572.81
2019-03-28T18:12:30.252Z,101572.42
2019-03-28T18:15:02.886Z,101569.41
2019-03-28T18:17:35.592Z,101573.80
2019-03-28T18:20:08.743Z,101576.83
2019-03-28T18:22:41.333Z,101574.20
2019-03-28T18:25:14.153Z,101575.95
2019-03-28T18:27:48.142Z,101577.30
2019-03-28T18:30:21.043Z,101576.90
2019-03-28T18:32:53.724Z,101576.92
2019-03-28T18:35:26.453Z,101574.36
2019-03-28T18:37:58.992Z,101571.77
2019-03-28T18:40:33.203Z,101569.20
2019-03-28T18:43:06.293Z,101572.70
2019-03-28T18:45:41.162Z,101558.42
2019-03-28T18:48:27.385Z,101576.64
2019-03-28T18:50:48.774Z,101579.73
2019-03-28T18:53:21.835Z,101581.56
2019-03-28T18:55:55.171Z,101583.34
2019-03-28T18:58:28.272Z,101583.36
2019-03-28T19:01:00.832Z,101583.36
2019-03-28T19:03:34.662Z,101591.19
2019-03-28T19:06:07.113Z,101582.11
2019-03-28T19:08:39.692Z,101592.13
2019-03-28T19:11:12.313Z,101588.69
2019-03-28T19:13:44.962Z,101587.00
2019-03-28T19:16:17.564Z,101595.25
2019-03-28T19:18:50.315Z,101588.73
2019-03-28T19:21:23.114Z,101599.16
2019-03-28T19:23:56.083Z,101591.34
2019-03-28T19:26:28.692Z,101597.81
2019-03-28T19:29:01.442Z,101596.09
2019-03-28T19:31:34.207Z,101603.06
2019-03-28T19:34:06.995Z,101609.59
2019-03-28T19:36:39.803Z,101606.09
2019-03-28T19:39:14.573Z,101609.59
2019-03-28T19:41:47.313Z,101609.55
2019-03-28T19:44:20.223Z,101612.20
2019-03-28T19:46:53.042Z,101604.84
2019-03-28T19:49:25.753Z,101596.60
2019-03-28T19:51:58.392Z,101603.54
2019-03-28T19:54:31.192Z,101602.28
2019-03-28T19:57:03.743Z,101600.13
2019-03-28T19:59:36.591Z,101605.34
2019-03-28T20:02:09.093Z,101610.59
2019-03-28T20:04:43.826Z,101611.51
2019-03-28T20:07:21.980Z,101617.17
2019-03-28T20:09:50.950Z,101616.32
2019-03-28T20:12:23.703Z,101627.62
2019-03-28T20:14:56.412Z,101631.55
2019-03-28T20:17:29.032Z,101634.58
2019-03-28T20:20:01.788Z,101645.86
2019-03-28T20:22:34.184Z,101639.35
2019-03-28T20:25:07.415Z,101645.41
2019-03-28T20:27:40.093Z,101640.22
2019-03-28T20:30:13.324Z,101646.30
2019-03-28T20:32:46.302Z,101646.31
2019-03-28T20:35:20.191Z,101651.56
2019-03-28T20:37:53.072Z,101643.31
2019-03-28T20:40:25.702Z,101648.94
2019-03-28T20:42:58.342Z,101656.31
2019-03-28T20:45:30.902Z,101660.63
2019-03-28T20:48:03.343Z,101656.75
2019-03-28T20:50:36.025Z,101650.23
2019-03-28T20:53:08.582Z,101653.72
2019-03-28T20:55:41.123Z,101651.52
2019-03-28T20:58:13.611Z,101655.88
2019-03-28T21:00:47.888Z,101657.13
2019-03-28T21:03:20.534Z,101664.45
2019-03-28T21:05:53.011Z,101667.37
2019-03-28T21:08:25.583Z,101663.38
2019-03-28T21:10:58.122Z,101667.66
2019-03-28T21:13:30.632Z,101665.03
2019-03-28T21:16:03.313Z,101665.91
2019-03-28T21:18:35.832Z,101674.17
2019-03-28T21:21:08.532Z,101663.32
2019-03-28T21:23:41.515Z,101671.95
2019-03-28T21:26:15.031Z,101679.73
2019-03-28T21:28:47.839Z,101686.58
2019-03-28T21:31:21.493Z,101695.63
2019-03-28T21:33:55.062Z,101693.02
2019-03-28T21:36:30.451Z,101689.88
2019-03-28T21:39:06.862Z,101689.28
2019-03-28T21:41:39.830Z,101688.69
2019-03-28T21:44:12.652Z,101693.29
2019-03-28T21:46:46.393Z,101687.47
2019-03-28T21:49:19.227Z,101685.62
2019-03-28T21:51:51.790Z,101683.94
2019-03-28T21:54:25.026Z,101684.75
2019-03-28T21:56:57.925Z,101684.75
2019-03-28T21:59:30.504Z,101680.94
2019-03-28T22:02:03.063Z,101686.27
2019-03-28T22:04:35.673Z,101684.58
2019-03-28T22:07:08.312Z,101682.81
2019-03-28T22:09:41.363Z,101679.69
2019-03-28T22:12:15.453Z,101673.53
2019-03-28T22:14:48.783Z,101675.59
2019-03-28T22:17:21.702Z,101673.30
2019-03-28T22:19:55.892Z,101676.26
2019-03-28T22:22:28.901Z,101672.25
2019-03-28T22:25:02.633Z,101672.57
2019-03-28T22:27:35.511Z,101668.59
2019-03-28T22:30:09.492Z,101668.13
2019-03-28T22:32:41.962Z,101661.63
2019-03-28T22:35:15.163Z,101664.31
2019-03-28T22:37:48.252Z,101664.45
2019-03-28T22:40:21.563Z,101656.83
2019-03-28T22:42:54.134Z,101665.50
2019-03-28T22:45:26.602Z,101667.16
2019-03-28T22:48:10.092Z,101670.64
2019-03-28T22:50:33.722Z,101669.73
2019-03-28T22:53:06.665Z,101674.96
2019-03-28T22:55:39.748Z,101672.42
2019-03-28T22:58:12.813Z,101669.38
2019-03-28T23:00:47.303Z,101668.05
2019-03-28T23:03:21.382Z,101665.39
2019-03-28T23:05:54.882Z,101659.70
2019-03-28T23:08:27.572Z,101658.70
2019-03-28T23:11:00.062Z,101651.22
2019-03-28T23:13:37.992Z,101654.14
2019-03-28T23:16:10.709Z,101655.77
2019-03-28T23:18:43.262Z,101650.05
2019-03-28T23:21:16.208Z,101644.83
2019-03-28T23:23:49.382Z,101657.80
2019-03-28T23:26:21.863Z,101661.37
2019-03-28T23:28:54.362Z,101663.62
2019-03-28T23:31:27.146Z,101670.13
2019-03-28T23:33:59.692Z,101669.70
2019-03-28T23:36:32.862Z,101664.96
2019-03-28T23:39:07.013Z,101670.09
2019-03-28T23:41:41.053Z,101666.59
2019-03-28T23:44:13.812Z,101679.08
2019-03-28T23:46:46.392Z,101678.61
2019-03-28T23:49:19.222Z,101679.52
2019-03-28T23:51:51.925Z,101668.36
2019-03-28T23:54:24.624Z,101674.86
2019-03-28T23:56:57.172Z,101661.08
2019-03-28T23:59:29.593Z,101653.70
